sensor_id;sensor_type;location;lat;lon;timestamp;P1;durP1;ratioP1;P2;durP2;ratioP2
22121;SDS011;11227;53.046;10.512;2022-11-09T00:01:36;36.47;;;31.10;;
22121;SDS011;11227;53.046;10.512;2022-11-09T00:05:38;37.75;;;28.75;;
22121;SDS011;11227;53.046;10.512;2022-11-09T00:09:40;35.65;;;28.83;;
22121;SDS011;11227;53.046;10.512;2022-11-09T00:13:42;37.00;;;28.38;;
22121;SDS011;11227;53.046;10.512;2022-11-09T00:17:45;35.95;;;28.05;;
22121;SDS011;11227;53.046;10.512;2022-11-09T00:21:46;36.45;;;27.67;;
22121;SDS011;11227;53.046;10.512;2022-11-09T00:25:48;34.45;;;27.30;;
22121;SDS011;11227;53.046;10.512;2022-11-09T00:29:50;34.58;;;27.27;;
22121;SDS011;11227;53.046;10.512;2022-11-09T00:33:52;35.10;;;26.83;;
22121;SDS011;11227;53.046;10.512;2022-11-09T00:37:55;33.75;;;26.17;;
22121;SDS011;11227;53.046;10.512;2022-11-09T00:41:57;33.88;;;25.40;;
22121;SDS011;11227;53.046;10.512;2022-11-09T00:45:58;31.58;;;24.83;;
22121;SDS011;11227;53.046;10.512;2022-11-09T00:50:00;33.08;;;24.92;;
22121;SDS011;11227;53.046;10.512;2022-11-09T00:54:02;32.63;;;25.33;;
22121;SDS011;11227;53.046;10.512;2022-11-09T00:58:03;29.85;;;24.20;;
22121;SDS011;11227;53.046;10.512;2022-11-09T01:02:05;28.05;;;23.95;;
22121;SDS011;11227;53.046;10.512;2022-11-09T01:06:07;30.70;;;23.67;;
22121;SDS011;11227;53.046;10.512;2022-11-09T01:10:09;29.30;;;23.85;;
22121;SDS011;11227;53.046;10.512;2022-11-09T01:14:11;29.00;;;22.45;;
22121;SDS011;11227;53.046;10.512;2022-11-09T01:18:13;30.02;;;24.02;;
22121;SDS011;11227;53.046;10.512;2022-11-09T01:22:16;28.90;;;23.13;;
22121;SDS011;11227;53.046;10.512;2022-11-09T01:26:19;28.02;;;21.65;;
22121;SDS011;11227;53.046;10.512;2022-11-09T01:30:21;28.05;;;21.85;;
22121;SDS011;11227;53.046;10.512;2022-11-09T01:34:22;29.88;;;21.63;;
22121;SDS011;11227;53.046;10.512;2022-11-09T01:38:24;25.10;;;21.05;;
22121;SDS011;11227;53.046;10.512;2022-11-09T01:42:26;27.88;;;20.67;;
22121;SDS011;11227;53.046;10.512;2022-11-09T01:46:32;24.63;;;19.65;;
22121;SDS011;11227;53.046;10.512;2022-11-09T01:50:45;24.13;;;19.42;;
22121;SDS011;11227;53.046;10.512;2022-11-09T01:55:20;25.25;;;20.48;;
22121;SDS011;11227;53.046;10.512;2022-11-09T01:59:23;23.42;;;18.50;;
22121;SDS011;11227;53.046;10.512;2022-11-09T02:03:30;22.83;;;18.88;;
22121;SDS011;11227;53.046;10.512;2022-11-09T02:07:35;24.50;;;18.45;;
22121;SDS011;11227;53.046;10.512;2022-11-09T02:11:38;22.42;;;17.88;;
22121;SDS011;11227;53.046;10.512;2022-11-09T02:15:41;22.80;;;18.17;;
22121;SDS011;11227;53.046;10.512;2022-11-09T02:19:46;23.13;;;17.50;;
22121;SDS011;11227;53.046;10.512;2022-11-09T02:23:48;21.33;;;17.45;;
22121;SDS011;11227;53.046;10.512;2022-11-09T02:27:50;23.15;;;18.10;;
22121;SDS011;11227;53.046;10.512;2022-11-09T02:31:59;21.80;;;17.60;;
22121;SDS011;11227;53.046;10.512;2022-11-09T02:36:04;22.85;;;17.38;;
22121;SDS011;11227;53.046;10.512;2022-11-09T02:40:06;20.48;;;16.67;;
22121;SDS011;11227;53.046;10.512;2022-11-09T02:44:13;20.30;;;16.25;;
22121;SDS011;11227;53.046;10.512;2022-11-09T02:48:16;19.52;;;15.45;;
22121;SDS011;11227;53.046;10.512;2022-11-09T02:52:18;19.15;;;15.85;;
22121;SDS011;11227;53.046;10.512;2022-11-09T02:56:20;19.23;;;15.63;;
22121;SDS011;11227;53.046;10.512;2022-11-09T03:00:22;18.23;;;15.15;;
22121;SDS011;11227;53.046;10.512;2022-11-09T03:04:23;16.65;;;13.75;;
22121;SDS011;11227;53.046;10.512;2022-11-09T03:08:25;17.90;;;14.75;;
22121;SDS011;11227;53.046;10.512;2022-11-09T03:12:27;17.65;;;14.98;;
22121;SDS011;11227;53.046;10.512;2022-11-09T03:16:31;19.08;;;14.68;;
22121;SDS011;11227;53.046;10.512;2022-11-09T03:20:33;17.85;;;14.35;;
22121;SDS011;11227;53.046;10.512;2022-11-09T03:24:35;16.38;;;13.93;;
22121;SDS011;11227;53.046;10.512;2022-11-09T03:28:36;18.65;;;14.95;;
22121;SDS011;11227;53.046;10.512;2022-11-09T03:32:38;16.45;;;14.15;;
22121;SDS011;11227;53.046;10.512;2022-11-09T03:36:40;16.33;;;13.98;;
22121;SDS011;11227;53.046;10.512;2022-11-09T03:40:41;17.23;;;14.48;;
22121;SDS011;11227;53.046;10.512;2022-11-09T03:44:43;17.20;;;13.95;;
22121;SDS011;11227;53.046;10.512;2022-11-09T03:48:45;17.27;;;14.02;;
22121;SDS011;11227;53.046;10.512;2022-11-09T03:52:46;15.52;;;13.32;;
22121;SDS011;11227;53.046;10.512;2022-11-09T03:56:48;16.63;;;14.00;;
22121;SDS011;11227;53.046;10.512;2022-11-09T04:00:50;16.38;;;13.43;;
22121;SDS011;11227;53.046;10.512;2022-11-09T04:04:52;17.42;;;14.00;;
22121;SDS011;11227;53.046;10.512;2022-11-09T04:08:53;16.52;;;13.50;;
22121;SDS011;11227;53.046;10.512;2022-11-09T04:12:55;16.10;;;12.82;;
22121;SDS011;11227;53.046;10.512;2022-11-09T04:16:56;16.33;;;12.95;;
22121;SDS011;11227;53.046;10.512;2022-11-09T04:20:58;16.30;;;13.07;;
22121;SDS011;11227;53.046;10.512;2022-11-09T04:25:00;17.23;;;14.18;;
22121;SDS011;11227;53.046;10.512;2022-11-09T04:29:01;15.70;;;12.63;;
22121;SDS011;11227;53.046;10.512;2022-11-09T04:33:04;15.35;;;12.40;;
22121;SDS011;11227;53.046;10.512;2022-11-09T04:37:06;15.48;;;12.52;;
22121;SDS011;11227;53.046;10.512;2022-11-09T04:41:08;14.98;;;12.63;;
22121;SDS011;11227;53.046;10.512;2022-11-09T04:45:10;14.85;;;11.48;;
22121;SDS011;11227;53.046;10.512;2022-11-09T04:49:11;14.48;;;12.77;;
22121;SDS011;11227;53.046;10.512;2022-11-09T04:53:13;16.45;;;12.88;;
22121;SDS011;11227;53.046;10.512;2022-11-09T04:57:15;14.70;;;12.27;;
22121;SDS011;11227;53.046;10.512;2022-11-09T05:01:17;13.50;;;11.70;;
22121;SDS011;11227;53.046;10.512;2022-11-09T05:05:19;14.15;;;11.77;;
22121;SDS011;11227;53.046;10.512;2022-11-09T05:09:20;13.75;;;12.18;;
22121;SDS011;11227;53.046;10.512;2022-11-09T05:13:22;15.30;;;12.15;;
22121;SDS011;11227;53.046;10.512;2022-11-09T05:17:23;15.77;;;12.27;;
22121;SDS011;11227;53.046;10.512;2022-11-09T05:21:25;13.10;;;11.70;;
22121;SDS011;11227;53.046;10.512;2022-11-09T05:25:27;14.35;;;11.70;;
22121;SDS011;11227;53.046;10.512;2022-11-09T05:29:29;13.57;;;11.38;;
22121;SDS011;11227;53.046;10.512;2022-11-09T05:33:31;13.32;;;11.15;;
22121;SDS011;11227;53.046;10.512;2022-11-09T05:37:33;12.23;;;10.95;;
22121;SDS011;11227;53.046;10.512;2022-11-09T05:41:35;13.55;;;10.73;;
22121;SDS011;11227;53.046;10.512;2022-11-09T05:45:36;12.48;;;10.90;;
22121;SDS011;11227;53.046;10.512;2022-11-09T05:49:44;13.45;;;11.18;;
22121;SDS011;11227;53.046;10.512;2022-11-09T05:53:45;12.57;;;10.27;;
22121;SDS011;11227;53.046;10.512;2022-11-09T05:57:47;15.23;;;11.55;;
22121;SDS011;11227;53.046;10.512;2022-11-09T06:01:49;11.88;;;10.57;;
22121;SDS011;11227;53.046;10.512;2022-11-09T06:05:51;13.52;;;10.93;;
22121;SDS011;11227;53.046;10.512;2022-11-09T06:09:52;12.90;;;11.10;;
22121;SDS011;11227;53.046;10.512;2022-11-09T06:13:54;13.27;;;10.75;;
22121;SDS011;11227;53.046;10.512;2022-11-09T06:17:56;14.48;;;10.90;;
22121;SDS011;11227;53.046;10.512;2022-11-09T06:21:58;13.05;;;10.98;;
22121;SDS011;11227;53.046;10.512;2022-11-09T06:26:09;14.68;;;11.43;;
22121;SDS011;11227;53.046;10.512;2022-11-09T06:30:11;14.10;;;10.80;;
22121;SDS011;11227;53.046;10.512;2022-11-09T06:34:14;17.17;;;11.05;;
22121;SDS011;11227;53.046;10.512;2022-11-09T06:38:15;18.58;;;11.65;;
22121;SDS011;11227;53.046;10.512;2022-11-09T06:42:17;18.23;;;11.55;;
22121;SDS011;11227;53.046;10.512;2022-11-09T06:46:19;14.50;;;11.43;;
22121;SDS011;11227;53.046;10.512;2022-11-09T06:50:21;15.15;;;11.25;;
22121;SDS011;11227;53.046;10.512;2022-11-09T06:54:22;15.10;;;11.27;;
22121;SDS011;11227;53.046;10.512;2022-11-09T06:58:24;16.10;;;11.30;;
22121;SDS011;11227;53.046;10.512;2022-11-09T07:02:26;17.17;;;11.05;;
22121;SDS011;11227;53.046;10.512;2022-11-09T07:06:27;18.20;;;11.50;;
22121;SDS011;11227;53.046;10.512;2022-11-09T07:10:29;17.80;;;11.13;;
22121;SDS011;11227;53.046;10.512;2022-11-09T07:14:31;15.00;;;10.40;;
22121;SDS011;11227;53.046;10.512;2022-11-09T07:18:33;16.25;;;11.60;;
22121;SDS011;11227;53.046;10.512;2022-11-09T07:22:40;14.93;;;11.18;;
22121;SDS011;11227;53.046;10.512;2022-11-09T07:26:42;15.18;;;11.13;;
22121;SDS011;11227;53.046;10.512;2022-11-09T07:30:43;15.45;;;11.00;;
22121;SDS011;11227;53.046;10.512;2022-11-09T07:34:45;18.27;;;12.10;;
22121;SDS011;11227;53.046;10.512;2022-11-09T07:38:47;15.82;;;11.25;;
22121;SDS011;11227;53.046;10.512;2022-11-09T07:42:49;19.25;;;11.63;;
22121;SDS011;11227;53.046;10.512;2022-11-09T07:46:51;13.55;;;10.40;;
22121;SDS011;11227;53.046;10.512;2022-11-09T07:50:52;17.70;;;11.73;;
22121;SDS011;11227;53.046;10.512;2022-11-09T07:54:56;16.20;;;11.43;;
22121;SDS011;11227;53.046;10.512;2022-11-09T07:58:58;16.42;;;11.23;;
22121;SDS011;11227;53.046;10.512;2022-11-09T08:03:00;15.60;;;11.18;;
22121;SDS011;11227;53.046;10.512;2022-11-09T08:07:02;14.80;;;10.70;;
22121;SDS011;11227;53.046;10.512;2022-11-09T08:11:04;17.13;;;10.63;;
22121;SDS011;11227;53.046;10.512;2022-11-09T08:15:06;17.42;;;11.95;;
22121;SDS011;11227;53.046;10.512;2022-11-09T08:19:08;17.10;;;11.23;;
22121;SDS011;11227;53.046;10.512;2022-11-09T08:23:11;15.18;;;10.93;;
22121;SDS011;11227;53.046;10.512;2022-11-09T08:27:14;15.82;;;10.65;;
22121;SDS011;11227;53.046;10.512;2022-11-09T08:31:15;13.98;;;10.55;;
22121;SDS011;11227;53.046;10.512;2022-11-09T08:35:18;13.48;;;10.30;;
22121;SDS011;11227;53.046;10.512;2022-11-09T08:39:22;13.35;;;9.85;;
22121;SDS011;11227;53.046;10.512;2022-11-09T08:43:23;15.60;;;10.30;;
22121;SDS011;11227;53.046;10.512;2022-11-09T08:47:25;14.23;;;10.32;;
22121;SDS011;11227;53.046;10.512;2022-11-09T08:51:28;13.30;;;10.00;;
22121;SDS011;11227;53.046;10.512;2022-11-09T08:55:29;14.10;;;10.07;;
22121;SDS011;11227;53.046;10.512;2022-11-09T08:59:31;15.35;;;10.80;;
22121;SDS011;11227;53.046;10.512;2022-11-09T09:03:33;12.05;;;9.50;;
22121;SDS011;11227;53.046;10.512;2022-11-09T09:07:35;15.05;;;9.82;;
22121;SDS011;11227;53.046;10.512;2022-11-09T09:11:36;13.52;;;10.38;;
22121;SDS011;11227;53.046;10.512;2022-11-09T09:15:38;15.95;;;10.80;;
22121;SDS011;11227;53.046;10.512;2022-11-09T09:19:40;14.40;;;9.93;;
22121;SDS011;11227;53.046;10.512;2022-11-09T09:23:49;13.80;;;10.32;;
22121;SDS011;11227;53.046;10.512;2022-11-09T09:27:51;15.40;;;9.65;;
22121;SDS011;11227;53.046;10.512;2022-11-09T09:31:52;16.35;;;10.50;;
22121;SDS011;11227;53.046;10.512;2022-11-09T09:35:55;13.65;;;10.32;;
22121;SDS011;11227;53.046;10.512;2022-11-09T09:39:58;15.40;;;9.93;;
22121;SDS011;11227;53.046;10.512;2022-11-09T09:48:37;16.13;;;9.57;;
22121;SDS011;11227;53.046;10.512;2022-11-09T09:53:05;11.93;;;9.07;;
22121;SDS011;11227;53.046;10.512;2022-11-09T09:57:24;15.75;;;9.68;;
22121;SDS011;11227;53.046;10.512;2022-11-09T10:01:36;16.80;;;9.98;;
22121;SDS011;11227;53.046;10.512;2022-11-09T10:05:45;12.68;;;9.38;;
22121;SDS011;11227;53.046;10.512;2022-11-09T10:18:22;14.23;;;9.52;;
22121;SDS011;11227;53.046;10.512;2022-11-09T10:22:33;12.25;;;8.88;;
22121;SDS011;11227;53.046;10.512;2022-11-09T10:26:42;11.48;;;9.15;;
22121;SDS011;11227;53.046;10.512;2022-11-09T10:30:45;12.95;;;8.48;;
22121;SDS011;11227;53.046;10.512;2022-11-09T10:39:04;12.05;;;8.88;;
22121;SDS011;11227;53.046;10.512;2022-11-09T10:43:11;12.75;;;8.52;;
22121;SDS011;11227;53.046;10.512;2022-11-09T10:47:15;12.23;;;8.30;;
22121;SDS011;11227;53.046;10.512;2022-11-09T10:59:56;10.95;;;8.18;;
22121;SDS011;11227;53.046;10.512;2022-11-09T11:03:58;12.50;;;9.05;;
22121;SDS011;11227;53.046;10.512;2022-11-09T11:08:21;9.20;;;7.60;;
22121;SDS011;11227;53.046;10.512;2022-11-09T11:12:25;10.07;;;7.47;;
22121;SDS011;11227;53.046;10.512;2022-11-09T11:16:28;10.55;;;8.00;;
22121;SDS011;11227;53.046;10.512;2022-11-09T11:20:36;10.52;;;8.20;;
22121;SDS011;11227;53.046;10.512;2022-11-09T11:24:40;10.75;;;8.20;;
22121;SDS011;11227;53.046;10.512;2022-11-09T11:28:44;10.85;;;8.10;;
22121;SDS011;11227;53.046;10.512;2022-11-09T11:32:49;9.38;;;7.50;;
22121;SDS011;11227;53.046;10.512;2022-11-09T12:12:57;10.45;;;6.97;;
22121;SDS011;11227;53.046;10.512;2022-11-09T12:21:12;9.60;;;7.35;;
22121;SDS011;11227;53.046;10.512;2022-11-09T12:25:23;9.27;;;6.60;;
22121;SDS011;11227;53.046;10.512;2022-11-09T12:29:55;9.23;;;6.55;;
22121;SDS011;11227;53.046;10.512;2022-11-09T12:34:06;9.45;;;6.43;;
22121;SDS011;11227;53.046;10.512;2022-11-09T12:38:28;8.68;;;6.85;;
22121;SDS011;11227;53.046;10.512;2022-11-09T12:42:38;8.52;;;6.75;;
22121;SDS011;11227;53.046;10.512;2022-11-09T12:46:51;8.40;;;6.05;;
22121;SDS011;11227;53.046;10.512;2022-11-09T12:51:00;9.25;;;6.60;;
22121;SDS011;11227;53.046;10.512;2022-11-09T12:55:04;8.48;;;6.45;;
22121;SDS011;11227;53.046;10.512;2022-11-09T13:03:28;8.73;;;6.57;;
22121;SDS011;11227;53.046;10.512;2022-11-09T13:07:41;11.18;;;6.95;;
22121;SDS011;11227;53.046;10.512;2022-11-09T13:11:50;9.15;;;6.32;;
22121;SDS011;11227;53.046;10.512;2022-11-09T13:25:01;6.93;;;5.72;;
22121;SDS011;11227;53.046;10.512;2022-11-09T13:29:27;8.32;;;6.63;;
22121;SDS011;11227;53.046;10.512;2022-11-09T13:33:31;7.13;;;5.82;;
22121;SDS011;11227;53.046;10.512;2022-11-09T13:41:41;7.30;;;5.57;;
22121;SDS011;11227;53.046;10.512;2022-11-09T13:49:47;5.97;;;5.00;;
22121;SDS011;11227;53.046;10.512;2022-11-09T13:53:58;6.93;;;5.63;;
22121;SDS011;11227;53.046;10.512;2022-11-09T13:58:26;6.43;;;5.07;;
22121;SDS011;11227;53.046;10.512;2022-11-09T14:02:30;7.43;;;5.57;;
22121;SDS011;11227;53.046;10.512;2022-11-09T14:06:32;6.75;;;5.60;;
22121;SDS011;11227;53.046;10.512;2022-11-09T14:10:44;7.20;;;5.07;;
22121;SDS011;11227;53.046;10.512;2022-11-09T14:19:18;6.05;;;4.88;;
22121;SDS011;11227;53.046;10.512;2022-11-09T14:23:34;6.60;;;5.32;;
22121;SDS011;11227;53.046;10.512;2022-11-09T14:27:36;5.78;;;5.00;;
22121;SDS011;11227;53.046;10.512;2022-11-09T14:31:46;6.28;;;4.85;;
22121;SDS011;11227;53.046;10.512;2022-11-09T14:35:48;6.18;;;4.93;;
22121;SDS011;11227;53.046;10.512;2022-11-09T14:39:51;6.32;;;5.10;;
22121;SDS011;11227;53.046;10.512;2022-11-09T14:43:54;5.30;;;4.63;;
22121;SDS011;11227;53.046;10.512;2022-11-09T14:47:58;5.95;;;5.00;;
22121;SDS011;11227;53.046;10.512;2022-11-09T14:52:00;8.57;;;5.50;;
22121;SDS011;11227;53.046;10.512;2022-11-09T14:56:04;7.40;;;4.65;;
22121;SDS011;11227;53.046;10.512;2022-11-09T15:04:25;7.13;;;5.07;;
22121;SDS011;11227;53.046;10.512;2022-11-09T15:08:27;6.85;;;4.30;;
22121;SDS011;11227;53.046;10.512;2022-11-09T15:12:30;8.95;;;4.85;;
22121;SDS011;11227;53.046;10.512;2022-11-09T15:16:32;6.20;;;5.03;;
22121;SDS011;11227;53.046;10.512;2022-11-09T15:20:34;5.22;;;4.20;;
22121;SDS011;11227;53.046;10.512;2022-11-09T15:24:46;6.00;;;4.82;;
22121;SDS011;11227;53.046;10.512;2022-11-09T15:28:48;5.75;;;4.65;;
22121;SDS011;11227;53.046;10.512;2022-11-09T15:32:51;6.15;;;4.35;;
22121;SDS011;11227;53.046;10.512;2022-11-09T15:36:53;5.82;;;4.63;;
22121;SDS011;11227;53.046;10.512;2022-11-09T15:40:56;5.75;;;3.95;;
22121;SDS011;11227;53.046;10.512;2022-11-09T15:44:58;6.72;;;4.47;;
22121;SDS011;11227;53.046;10.512;2022-11-09T15:49:33;5.90;;;4.40;;
22121;SDS011;11227;53.046;10.512;2022-11-09T15:53:28;5.70;;;4.75;;
22121;SDS011;11227;53.046;10.512;2022-11-09T15:57:30;4.75;;;3.88;;
22121;SDS011;11227;53.046;10.512;2022-11-09T16:01:31;5.55;;;4.25;;
22121;SDS011;11227;53.046;10.512;2022-11-09T16:05:34;5.22;;;4.20;;
22121;SDS011;11227;53.046;10.512;2022-11-09T16:09:38;5.72;;;3.80;;
22121;SDS011;11227;53.046;10.512;2022-11-09T16:13:41;4.30;;;3.90;;
22121;SDS011;11227;53.046;10.512;2022-11-09T16:17:42;3.75;;;3.45;;
22121;SDS011;11227;53.046;10.512;2022-11-09T16:21:44;4.47;;;3.85;;
22121;SDS011;11227;53.046;10.512;2022-11-09T16:25:46;4.13;;;3.60;;
22121;SDS011;11227;53.046;10.512;2022-11-09T16:29:47;4.47;;;4.00;;
22121;SDS011;11227;53.046;10.512;2022-11-09T16:33:50;5.60;;;3.90;;
22121;SDS011;11227;53.046;10.512;2022-11-09T16:37:52;4.60;;;3.78;;
22121;SDS011;11227;53.046;10.512;2022-11-09T16:41:55;4.97;;;3.67;;
22121;SDS011;11227;53.046;10.512;2022-11-09T16:46:01;4.60;;;3.88;;
22121;SDS011;11227;53.046;10.512;2022-11-09T16:50:02;3.92;;;3.53;;
22121;SDS011;11227;53.046;10.512;2022-11-09T16:54:04;4.90;;;3.40;;
22121;SDS011;11227;53.046;10.512;2022-11-09T16:58:06;3.75;;;3.25;;
22121;SDS011;11227;53.046;10.512;2022-11-09T17:02:08;4.15;;;3.53;;
22121;SDS011;11227;53.046;10.512;2022-11-09T17:06:09;3.97;;;3.20;;
22121;SDS011;11227;53.046;10.512;2022-11-09T17:10:11;4.82;;;3.55;;
22121;SDS011;11227;53.046;10.512;2022-11-09T17:14:13;3.85;;;3.42;;
22121;SDS011;11227;53.046;10.512;2022-11-09T17:18:15;3.80;;;3.30;;
22121;SDS011;11227;53.046;10.512;2022-11-09T17:22:17;4.28;;;3.63;;
22121;SDS011;11227;53.046;10.512;2022-11-09T17:26:19;4.80;;;3.13;;
22121;SDS011;11227;53.046;10.512;2022-11-09T17:30:21;4.70;;;3.60;;
22121;SDS011;11227;53.046;10.512;2022-11-09T17:34:24;6.20;;;3.40;;
22121;SDS011;11227;53.046;10.512;2022-11-09T17:38:27;6.13;;;3.30;;
22121;SDS011;11227;53.046;10.512;2022-11-09T17:42:29;4.10;;;2.97;;
22121;SDS011;11227;53.046;10.512;2022-11-09T17:46:33;4.28;;;3.30;;
22121;SDS011;11227;53.046;10.512;2022-11-09T17:50:34;5.10;;;3.53;;
22121;SDS011;11227;53.046;10.512;2022-11-09T17:54:36;2.90;;;2.60;;
22121;SDS011;11227;53.046;10.512;2022-11-09T17:58:42;3.97;;;3.03;;
22121;SDS011;11227;53.046;10.512;2022-11-09T18:02:45;5.55;;;2.95;;
22121;SDS011;11227;53.046;10.512;2022-11-09T18:06:47;3.65;;;2.58;;
22121;SDS011;11227;53.046;10.512;2022-11-09T18:10:48;4.03;;;2.97;;
22121;SDS011;11227;53.046;10.512;2022-11-09T18:14:50;2.95;;;2.63;;
22121;SDS011;11227;53.046;10.512;2022-11-09T18:18:57;3.85;;;2.80;;
22121;SDS011;11227;53.046;10.512;2022-11-09T18:22:59;2.65;;;2.35;;
22121;SDS011;11227;53.046;10.512;2022-11-09T18:27:01;3.50;;;2.60;;
22121;SDS011;11227;53.046;10.512;2022-11-09T18:35:35;2.83;;;2.53;;
22121;SDS011;11227;53.046;10.512;2022-11-09T18:39:37;4.55;;;2.60;;
22121;SDS011;11227;53.046;10.512;2022-11-09T18:43:39;4.13;;;3.00;;
22121;SDS011;11227;53.046;10.512;2022-11-09T18:47:41;3.17;;;2.30;;
22121;SDS011;11227;53.046;10.512;2022-11-09T18:51:43;6.00;;;2.35;;
22121;SDS011;11227;53.046;10.512;2022-11-09T18:55:45;2.90;;;2.40;;
22121;SDS011;11227;53.046;10.512;2022-11-09T18:59:47;4.45;;;2.58;;
22121;SDS011;11227;53.046;10.512;2022-11-09T19:03:49;2.78;;;2.35;;
22121;SDS011;11227;53.046;10.512;2022-11-09T19:07:58;3.65;;;2.35;;
22121;SDS011;11227;53.046;10.512;2022-11-09T19:12:00;3.30;;;2.42;;
22121;SDS011;11227;53.046;10.512;2022-11-09T19:16:06;4.30;;;2.22;;
22121;SDS011;11227;53.046;10.512;2022-11-09T19:20:11;4.13;;;2.40;;
22121;SDS011;11227;53.046;10.512;2022-11-09T19:24:14;3.80;;;2.30;;
22121;SDS011;11227;53.046;10.512;2022-11-09T19:28:17;3.50;;;2.28;;
22121;SDS011;11227;53.046;10.512;2022-11-09T19:32:19;3.60;;;2.00;;
22121;SDS011;11227;53.046;10.512;2022-11-09T19:36:25;3.40;;;2.38;;
22121;SDS011;11227;53.046;10.512;2022-11-09T19:40:31;3.42;;;2.60;;
22121;SDS011;11227;53.046;10.512;2022-11-09T19:44:39;7.55;;;3.80;;
22121;SDS011;11227;53.046;10.512;2022-11-09T19:48:45;3.70;;;1.83;;
22121;SDS011;11227;53.046;10.512;2022-11-09T19:52:47;2.28;;;2.00;;
22121;SDS011;11227;53.046;10.512;2022-11-09T19:56:48;4.57;;;2.28;;
22121;SDS011;11227;53.046;10.512;2022-11-09T20:00:50;2.38;;;1.90;;
22121;SDS011;11227;53.046;10.512;2022-11-09T20:05:00;2.10;;;1.90;;
22121;SDS011;11227;53.046;10.512;2022-11-09T20:09:02;2.70;;;2.20;;
22121;SDS011;11227;53.046;10.512;2022-11-09T20:13:03;3.80;;;1.80;;
22121;SDS011;11227;53.046;10.512;2022-11-09T20:17:05;2.92;;;1.95;;
22121;SDS011;11227;53.046;10.512;2022-11-09T20:21:07;5.22;;;2.10;;
22121;SDS011;11227;53.046;10.512;2022-11-09T20:25:08;2.58;;;2.10;;
22121;SDS011;11227;53.046;10.512;2022-11-09T20:29:10;4.20;;;2.08;;
22121;SDS011;11227;53.046;10.512;2022-11-09T20:33:12;3.67;;;2.03;;
22121;SDS011;11227;53.046;10.512;2022-11-09T20:37:14;2.85;;;1.67;;
22121;SDS011;11227;53.046;10.512;2022-11-09T20:41:17;2.70;;;1.92;;
22121;SDS011;11227;53.046;10.512;2022-11-09T20:45:25;2.03;;;1.70;;
22121;SDS011;11227;53.046;10.512;2022-11-09T20:49:26;2.83;;;1.65;;
22121;SDS011;11227;53.046;10.512;2022-11-09T20:53:28;3.30;;;1.95;;
22121;SDS011;11227;53.046;10.512;2022-11-09T20:57:30;2.60;;;1.80;;
22121;SDS011;11227;53.046;10.512;2022-11-09T21:01:32;3.75;;;2.05;;
22121;SDS011;11227;53.046;10.512;2022-11-09T21:05:33;1.90;;;1.70;;
22121;SDS011;11227;53.046;10.512;2022-11-09T21:09:35;4.18;;;1.88;;
22121;SDS011;11227;53.046;10.512;2022-11-09T21:13:37;2.88;;;1.77;;
22121;SDS011;11227;53.046;10.512;2022-11-09T21:17:41;3.22;;;2.20;;
22121;SDS011;11227;53.046;10.512;2022-11-09T21:21:43;2.22;;;1.67;;
22121;SDS011;11227;53.046;10.512;2022-11-09T21:25:45;2.67;;;1.75;;
22121;SDS011;11227;53.046;10.512;2022-11-09T21:30:05;1.30;;;1.20;;
22121;SDS011;11227;53.046;10.512;2022-11-09T21:34:07;1.85;;;1.40;;
22121;SDS011;11227;53.046;10.512;2022-11-09T21:38:08;2.90;;;1.52;;
22121;SDS011;11227;53.046;10.512;2022-11-09T21:42:10;2.40;;;1.30;;
22121;SDS011;11227;53.046;10.512;2022-11-09T21:46:12;2.40;;;1.23;;
22121;SDS011;11227;53.046;10.512;2022-11-09T21:50:13;1.90;;;1.50;;
22121;SDS011;11227;53.046;10.512;2022-11-09T21:54:15;2.30;;;1.40;;
22121;SDS011;11227;53.046;10.512;2022-11-09T21:58:17;3.03;;;1.15;;
22121;SDS011;11227;53.046;10.512;2022-11-09T22:02:18;2.15;;;1.48;;
22121;SDS011;11227;53.046;10.512;2022-11-09T22:06:20;3.15;;;1.45;;
22121;SDS011;11227;53.046;10.512;2022-11-09T22:10:22;1.58;;;1.20;;
22121;SDS011;11227;53.046;10.512;2022-11-09T22:14:24;3.00;;;1.60;;
22121;SDS011;11227;53.046;10.512;2022-11-09T22:18:44;1.60;;;1.20;;
22121;SDS011;11227;53.046;10.512;2022-11-09T22:23:05;2.65;;;1.30;;
22121;SDS011;11227;53.046;10.512;2022-11-09T22:27:10;1.73;;;1.50;;
22121;SDS011;11227;53.046;10.512;2022-11-09T22:31:11;1.60;;;1.20;;
22121;SDS011;11227;53.046;10.512;2022-11-09T22:35:13;1.55;;;1.40;;
22121;SDS011;11227;53.046;10.512;2022-11-09T22:39:15;1.52;;;1.25;;
22121;SDS011;11227;53.046;10.512;2022-11-09T22:43:17;2.83;;;1.20;;
22121;SDS011;11227;53.046;10.512;2022-11-09T22:47:19;1.65;;;1.20;;
22121;SDS011;11227;53.046;10.512;2022-11-09T22:51:20;4.25;;;1.40;;
22121;SDS011;11227;53.046;10.512;2022-11-09T22:55:23;1.10;;;0.90;;
22121;SDS011;11227;53.046;10.512;2022-11-09T22:59:25;1.77;;;1.00;;
22121;SDS011;11227;53.046;10.512;2022-11-09T23:03:26;1.35;;;1.13;;
22121;SDS011;11227;53.046;10.512;2022-11-09T23:07:28;2.45;;;1.10;;
22121;SDS011;11227;53.046;10.512;2022-11-09T23:11:30;2.13;;;1.10;;
22121;SDS011;11227;53.046;10.512;2022-11-09T23:15:32;1.80;;;1.20;;
22121;SDS011;11227;53.046;10.512;2022-11-09T23:19:33;1.45;;;1.10;;
22121;SDS011;11227;53.046;10.512;2022-11-09T23:23:35;1.02;;;0.90;;
22121;SDS011;11227;53.046;10.512;2022-11-09T23:27:37;2.53;;;1.23;;
22121;SDS011;11227;53.046;10.512;2022-11-09T23:31:39;1.23;;;1.00;;
22121;SDS011;11227;53.046;10.512;2022-11-09T23:35:40;1.65;;;1.08;;
22121;SDS011;11227;53.046;10.512;2022-11-09T23:39:42;1.73;;;1.10;;
22121;SDS011;11227;53.046;10.512;2022-11-09T23:43:43;3.83;;;0.98;;
22121;SDS011;11227;53.046;10.512;2022-11-09T23:47:51;1.83;;;1.00;;
22121;SDS011;11227;53.046;10.512;2022-11-09T23:51:53;1.13;;;0.90;;
22121;SDS011;11227;53.046;10.512;2022-11-09T23:56:01;2.40;;;1.27;;
